createdAt,value
2019-04-05T00:01:27.605Z,85.34
2019-04-05T00:04:17.498Z,85.68
2019-04-05T00:07:07.784Z,85.96
2019-04-05T00:09:57.641Z,85.82
2019-04-05T00:12:31.306Z,86.13
2019-04-05T00:15:21.474Z,85.86
2019-04-05T00:18:15.178Z,85.90
2019-04-05T00:20:48.672Z,85.61
2019-04-05T00:23:38.860Z,85.94
2019-04-05T00:26:28.772Z,85.91
2019-04-05T00:29:19.118Z,85.90
2019-04-05T00:32:01.222Z,85.60
2019-04-05T00:34:44.478Z,85.17
2019-04-05T00:37:26.208Z,85.08
2019-04-05T00:40:16.637Z,85.46
2019-04-05T00:42:47.827Z,85.37
2019-04-05T00:45:28.474Z,84.99
2019-04-05T00:48:16.788Z,85.65
2019-04-05T00:50:47.989Z,86.07
2019-04-05T00:53:20.170Z,86.45
2019-04-05T00:56:10.090Z,87.49
2019-04-05T00:58:41.609Z,87.25
2019-04-05T01:01:14.113Z,87.20
2019-04-05T01:04:04.098Z,87.54
2019-04-05T01:06:38.208Z,87.43
2019-04-05T01:09:33.439Z,87.86
2019-04-05T01:15:54.765Z,86.96
2019-04-05T01:21:50.644Z,86.86
2019-04-05T01:24:32.189Z,86.72
2019-04-05T01:30:12.581Z,86.47
2019-04-05T01:33:03.276Z,86.25
2019-04-05T01:35:53.765Z,85.83
2019-04-05T01:41:41.481Z,85.47
2019-04-05T01:44:16.992Z,85.63
2019-04-05T01:47:33.102Z,85.96
2019-04-05T01:50:22.923Z,86.54
2019-04-05T01:53:13.991Z,86.21
2019-04-05T01:56:04.847Z,86.28
2019-04-05T01:58:55.003Z,86.61
2019-04-05T02:01:46.731Z,86.41
2019-04-05T02:04:38.000Z,86.04
2019-04-05T02:07:46.938Z,86.68
2019-04-05T02:10:19.075Z,87.09
2019-04-05T02:13:04.399Z,87.00
2019-04-05T02:15:46.661Z,87.32
2019-04-05T02:21:12.590Z,87.69
2019-04-05T02:23:54.952Z,87.33
2019-04-05T02:29:26.729Z,86.88
2019-04-05T02:32:11.579Z,86.82
2019-04-05T02:34:54.187Z,87.00
2019-04-05T02:40:23.858Z,86.74
2019-04-05T02:43:37.364Z,86.45
2019-04-05T02:46:23.780Z,86.42
2019-04-05T02:49:06.043Z,86.75
2019-04-05T02:51:40.538Z,86.26
2019-04-05T02:54:39.620Z,86.27
2019-04-05T02:57:29.626Z,86.37
2019-04-05T03:00:21.040Z,86.27
2019-04-05T03:02:53.626Z,86.45
2019-04-05T03:05:33.424Z,86.31
2019-04-05T03:08:23.834Z,86.53
2019-04-05T03:11:34.987Z,86.42
2019-04-05T03:14:45.017Z,85.97
2019-04-05T03:17:39.027Z,86.26
2019-04-05T03:20:11.316Z,86.38
2019-04-05T03:26:20.865Z,87.57
2019-04-05T03:29:12.924Z,88.01
2019-04-05T03:32:03.489Z,88.04
2019-04-05T03:34:37.808Z,88.31
2019-04-05T03:37:10.130Z,88.32
2019-04-05T03:39:42.427Z,87.64
2019-04-05T03:42:33.927Z,86.94
2019-04-05T03:45:24.006Z,87.41
2019-04-05T03:47:57.064Z,87.75
2019-04-05T03:50:48.623Z,87.58
2019-04-05T03:53:38.618Z,87.25
2019-04-05T03:56:29.098Z,88.08
2019-04-05T03:59:24.717Z,87.93
2019-04-05T04:02:15.021Z,88.24
2019-04-05T04:07:58.959Z,88.38
2019-04-05T04:11:09.736Z,88.93
2019-04-05T04:14:00.949Z,88.93
2019-04-05T04:16:51.594Z,89.00
2019-04-05T04:19:41.859Z,88.27
2019-04-05T04:22:24.847Z,88.11
2019-04-05T04:25:07.362Z,88.32
2019-04-05T04:27:40.449Z,88.36
2019-04-05T04:30:31.672Z,88.30
2019-04-05T04:33:14.427Z,88.49
2019-04-05T04:35:55.984Z,87.85
2019-04-05T04:38:47.658Z,87.41
2019-04-05T04:41:38.963Z,88.88
2019-04-05T04:44:10.797Z,87.93
2019-04-05T04:47:09.250Z,87.35
2019-04-05T04:49:41.035Z,87.07
2019-04-05T04:52:13.068Z,86.80
2019-04-05T04:55:03.119Z,86.27
2019-04-05T04:58:16.080Z,87.22
2019-04-05T05:00:48.967Z,87.67
2019-04-05T05:05:59.095Z,88.01
2019-04-05T05:08:49.944Z,87.28
2019-04-05T05:11:39.983Z,87.24
2019-04-05T05:14:31.617Z,87.19
2019-04-05T05:17:42.886Z,87.28
2019-04-05T05:20:34.436Z,87.89
2019-04-05T05:23:09.359Z,87.94
2019-04-05T05:25:53.988Z,87.92
2019-04-05T05:28:34.690Z,88.01
2019-04-05T05:31:26.311Z,88.32
2019-04-05T05:34:16.561Z,88.17
2019-04-05T05:37:08.867Z,87.95
2019-04-05T05:39:40.687Z,88.13
2019-04-05T05:42:12.335Z,87.63
2019-04-05T05:45:02.263Z,87.27
2019-04-05T05:47:33.449Z,86.66
2019-04-05T05:50:05.428Z,86.39
2019-04-05T05:55:33.916Z,83.77
2019-04-05T05:58:07.413Z,83.75
2019-04-05T06:00:38.617Z,83.69
2019-04-05T06:03:28.815Z,83.96
2019-04-05T06:06:18.759Z,83.87
2019-04-05T06:09:19.687Z,82.77
2019-04-05T06:12:03.967Z,82.25
2019-04-05T06:14:53.942Z,82.48
2019-04-05T06:17:43.855Z,81.74
2019-04-05T06:20:15.812Z,80.77
2019-04-05T06:22:47.684Z,80.21
2019-04-05T06:25:19.083Z,80.36
2019-04-05T06:28:09.185Z,79.76
2019-04-05T06:30:59.190Z,80.10
2019-04-05T06:33:49.215Z,80.07
2019-04-05T06:36:21.795Z,79.02
2019-04-05T06:38:52.938Z,79.55
2019-04-05T06:41:24.054Z,79.57
2019-04-05T06:43:56.235Z,79.63
2019-04-05T06:46:45.875Z,79.92
2019-04-05T06:49:17.944Z,79.29
2019-04-05T06:51:50.004Z,79.17
2019-04-05T06:54:20.839Z,79.99
2019-04-05T06:56:51.696Z,80.41
2019-04-05T06:59:41.491Z,80.03
2019-04-05T07:02:12.552Z,79.65
2019-04-05T07:04:43.515Z,78.58
2019-04-05T07:07:17.667Z,78.73
2019-04-05T07:09:49.341Z,78.74
2019-04-05T07:12:21.750Z,79.38
2019-04-05T07:15:11.667Z,79.40
2019-04-05T07:18:01.468Z,79.84
2019-04-05T07:20:32.310Z,79.74
2019-04-05T07:23:22.099Z,78.79
2019-04-05T07:25:53.076Z,78.09
2019-04-05T07:28:25.223Z,78.68
2019-04-05T07:31:05.812Z,78.95
2019-04-05T07:33:36.774Z,78.26
2019-04-05T07:36:07.750Z,78.68
2019-04-05T07:38:57.466Z,79.44
2019-04-05T07:41:33.341Z,79.28
2019-04-05T07:44:36.964Z,78.87
2019-04-05T07:46:57.057Z,77.69
2019-04-05T07:49:32.067Z,77.96
2019-04-05T07:52:22.133Z,77.60
2019-04-05T07:54:55.339Z,76.92
2019-04-05T07:57:46.734Z,77.13
2019-04-05T08:00:55.199Z,77.86
2019-04-05T08:03:46.320Z,77.34
2019-04-05T08:06:37.564Z,77.25
2019-04-05T08:09:27.791Z,77.08
2019-04-05T08:11:58.872Z,77.16
2019-04-05T08:14:30.680Z,76.27
2019-04-05T08:17:01.874Z,76.84
2019-04-05T08:19:32.685Z,75.97
2019-04-05T08:22:22.574Z,75.40
2019-04-05T08:25:12.315Z,74.98
2019-04-05T08:28:02.234Z,74.91
2019-04-05T08:30:52.015Z,76.08
2019-04-05T08:33:22.833Z,76.19
2019-04-05T08:35:54.182Z,75.63
2019-04-05T08:39:02.967Z,75.47
2019-04-05T08:41:52.779Z,75.18
2019-04-05T08:45:03.147Z,75.79
2019-04-05T08:47:53.119Z,76.21
2019-04-05T08:50:25.140Z,76.11
2019-04-05T08:52:56.127Z,76.18
2019-04-05T08:55:45.999Z,74.49
2019-04-05T08:58:35.951Z,74.80
2019-04-05T09:01:06.992Z,76.05
2019-04-05T09:03:38.371Z,76.39
2019-04-05T09:06:09.510Z,76.13
2019-04-05T09:08:40.455Z,75.41
2019-04-05T09:11:11.852Z,74.72
2019-04-05T09:14:02.889Z,74.87
2019-04-05T09:19:22.769Z,73.61
2019-04-05T09:21:43.359Z,73.16
2019-04-05T09:24:14.308Z,72.09
2019-04-05T09:27:04.263Z,70.65
2019-04-05T09:29:59.520Z,69.59
2019-04-05T09:32:30.760Z,67.27
2019-04-05T09:35:01.601Z,67.90
2019-04-05T09:37:32.508Z,67.08
2019-04-05T09:40:22.559Z,65.76
2019-04-05T09:42:53.931Z,63.33
2019-04-05T09:45:45.748Z,63.72
2019-04-05T09:48:36.255Z,63.46
2019-04-05T09:51:07.334Z,62.71
2019-04-05T09:53:39.074Z,61.63
2019-04-05T09:56:09.924Z,59.42
2019-04-05T09:58:40.752Z,58.78
2019-04-05T10:01:11.667Z,59.59
2019-04-05T10:03:42.582Z,59.52
2019-04-05T10:06:13.418Z,58.71
2019-04-05T10:08:44.787Z,58.30
2019-04-05T10:11:15.658Z,57.63
2019-04-05T10:14:05.872Z,57.79
2019-04-05T10:16:42.016Z,57.92
2019-04-05T10:19:22.656Z,56.34
2019-04-05T10:21:53.597Z,53.99
2019-04-05T10:24:24.491Z,53.11
2019-04-05T10:27:14.201Z,51.46
2019-04-05T10:29:45.785Z,52.33
2019-04-05T10:32:35.892Z,52.53
2019-04-05T10:35:07.914Z,53.58
2019-04-05T10:37:39.057Z,53.62
2019-04-05T10:40:11.052Z,53.33
2019-04-05T10:43:00.684Z,54.23
2019-04-05T10:45:31.608Z,55.85
2019-04-05T10:48:21.225Z,56.35
2019-04-05T10:51:10.966Z,57.63
2019-04-05T10:53:41.849Z,56.53
2019-04-05T10:56:33.333Z,56.25
2019-04-05T10:59:24.129Z,56.44
2019-04-05T11:02:15.826Z,56.89
2019-04-05T11:04:47.803Z,56.24
2019-04-05T11:07:18.884Z,55.69
2019-04-05T11:12:46.255Z,56.01
2019-04-05T11:15:36.533Z,55.85
2019-04-05T11:18:07.653Z,56.26
2019-04-05T11:20:57.624Z,56.40
2019-04-05T11:23:34.114Z,56.98
2019-04-05T11:26:07.795Z,59.25
2019-04-05T11:28:38.774Z,59.34
2019-04-05T11:31:28.495Z,59.42
2019-04-05T11:34:00.131Z,60.50
2019-04-05T11:36:41.877Z,59.99
2019-04-05T11:39:12.820Z,60.93
2019-04-05T11:42:22.637Z,61.09
2019-04-05T11:44:54.533Z,61.24
2019-04-05T11:47:44.540Z,63.39
2019-04-05T11:50:16.142Z,63.44
2019-04-05T11:53:06.536Z,63.41
2019-04-05T11:55:38.351Z,63.48
2019-04-05T11:58:09.234Z,63.63
2019-04-05T12:01:17.773Z,64.14
2019-04-05T12:04:08.117Z,64.57
2019-04-05T12:06:39.116Z,65.02
2019-04-05T12:09:31.500Z,64.63
2019-04-05T12:12:02.288Z,64.24
2019-04-05T12:14:52.299Z,64.54
2019-04-05T12:17:42.167Z,65.04
2019-04-05T12:20:33.251Z,63.63
2019-04-05T12:23:24.938Z,63.98
2019-04-05T12:25:55.800Z,64.78
2019-04-05T12:28:45.510Z,64.71
2019-04-05T12:34:45.162Z,65.57
2019-04-05T12:37:34.927Z,65.00
2019-04-05T12:40:10.279Z,66.60
2019-04-05T12:42:59.908Z,64.54
2019-04-05T12:45:49.971Z,64.86
2019-04-05T12:48:39.636Z,63.87
2019-04-05T12:51:17.581Z,64.57
2019-04-05T12:53:48.798Z,65.73
2019-04-05T12:56:19.691Z,65.78
2019-04-05T12:58:55.505Z,65.49
2019-04-05T13:01:45.740Z,65.29
2019-04-05T13:04:20.313Z,65.57
2019-04-05T13:07:09.517Z,64.69
2019-04-05T13:09:59.254Z,65.18
2019-04-05T13:12:30.333Z,65.50
2019-04-05T13:15:11.813Z,64.95
2019-04-05T13:17:52.791Z,64.95
2019-04-05T13:20:42.636Z,64.64
2019-04-05T13:23:14.441Z,64.19
2019-04-05T13:26:04.864Z,63.64
2019-04-05T13:28:38.830Z,64.21
2019-04-05T13:31:29.088Z,64.36
2019-04-05T13:34:02.790Z,63.79
2019-04-05T13:36:53.025Z,63.91
2019-04-05T13:39:42.991Z,63.81
2019-04-05T13:42:14.056Z,64.43
2019-04-05T13:45:22.039Z,64.99
2019-04-05T13:48:12.087Z,64.41
2019-04-05T13:51:02.348Z,65.03
2019-04-05T13:53:33.521Z,64.51
2019-04-05T13:56:23.694Z,64.40
2019-04-05T13:59:13.686Z,64.26
2019-04-05T14:02:06.252Z,64.59
2019-04-05T14:04:36.675Z,63.46
2019-04-05T14:07:26.818Z,63.44
2019-04-05T14:10:16.699Z,63.65
2019-04-05T14:13:07.663Z,64.33
2019-04-05T14:15:58.185Z,64.82
2019-04-05T14:18:29.473Z,64.86
2019-04-05T14:21:00.872Z,65.15
2019-04-05T14:23:39.500Z,65.37
2019-04-05T14:26:19.985Z,66.27
2019-04-05T14:28:54.071Z,67.04
2019-04-05T14:31:25.247Z,67.20
2019-04-05T14:33:57.736Z,67.04
2019-04-05T14:36:39.472Z,67.32
2019-04-05T14:39:10.980Z,67.41
2019-04-05T14:41:43.433Z,66.89
2019-04-05T14:44:20.808Z,67.31
2019-04-05T14:46:51.740Z,66.73
2019-04-05T14:49:41.837Z,66.47
2019-04-05T14:52:31.850Z,65.66
2019-04-05T14:55:21.826Z,66.05
2019-04-05T14:58:29.688Z,66.12
2019-04-05T15:01:00.652Z,66.07
2019-04-05T15:04:01.077Z,66.49
2019-04-05T15:06:51.456Z,66.51
2019-04-05T15:09:25.367Z,66.35
2019-04-05T15:11:58.661Z,65.94
2019-04-05T15:14:32.843Z,66.11
2019-04-05T15:17:22.553Z,66.05
2019-04-05T15:23:09.900Z,65.77
2019-04-05T15:26:02.944Z,65.94
2019-04-05T15:31:59.618Z,66.26
2019-04-05T15:34:52.563Z,66.35
2019-04-05T15:40:25.743Z,66.92
2019-04-05T15:43:25.045Z,66.89
2019-04-05T15:45:55.960Z,66.87
2019-04-05T15:48:46.027Z,67.00
2019-04-05T15:51:35.952Z,66.99
2019-04-05T15:57:03.385Z,67.46
2019-04-05T16:02:33.906Z,67.29
2019-04-05T16:05:16.329Z,67.10
2019-04-05T16:07:47.462Z,67.82
2019-04-05T16:10:18.546Z,67.79
2019-04-05T16:13:09.315Z,67.76
2019-04-05T16:16:02.548Z,68.01
2019-04-05T16:18:33.561Z,68.27
2019-04-05T16:21:23.833Z,68.46
2019-04-05T16:27:09.263Z,68.16
2019-04-05T16:30:02.380Z,67.65
2019-04-05T16:32:58.581Z,68.15
2019-04-05T16:35:29.633Z,68.43
2019-04-05T16:40:55.340Z,67.59
2019-04-05T16:43:50.404Z,67.39
2019-04-05T16:56:00.429Z,67.66
2019-04-05T16:58:52.231Z,68.15
2019-04-05T17:01:34.595Z,67.42
2019-04-05T17:04:08.610Z,67.60
2019-04-05T17:07:02.353Z,67.85
2019-04-05T17:09:37.964Z,68.30
2019-04-05T17:18:48.546Z,69.57
2019-04-05T17:21:40.394Z,69.98
2019-04-05T17:24:52.124Z,70.21
2019-04-05T17:28:01.625Z,70.38
2019-04-05T17:31:29.567Z,70.50
2019-04-05T17:35:00.283Z,71.02
2019-04-05T17:40:58.664Z,72.05
2019-04-05T17:43:30.415Z,72.04
2019-04-05T17:46:20.543Z,72.27
2019-04-05T17:49:10.339Z,72.62
2019-04-05T17:51:42.388Z,72.88
2019-04-05T17:54:17.661Z,72.62
2019-04-05T17:56:49.832Z,72.11
2019-04-05T17:59:25.565Z,71.94
2019-04-05T18:01:57.096Z,72.65
2019-04-05T18:04:31.659Z,73.01
2019-04-05T18:07:03.294Z,72.26
2019-04-05T18:09:37.251Z,72.80
2019-04-05T18:12:12.809Z,72.71
2019-04-05T18:15:05.586Z,73.16
2019-04-05T18:17:57.614Z,72.80
2019-04-05T18:20:28.656Z,73.03
2019-04-05T18:23:25.303Z,73.19
2019-04-05T18:26:12.310Z,73.11
2019-04-05T18:31:41.738Z,73.61
2019-04-05T18:34:31.592Z,74.09
2019-04-05T18:37:03.987Z,73.72
2019-04-05T18:39:55.158Z,74.18
2019-04-05T18:45:07.233Z,74.08
2019-04-05T18:47:57.739Z,74.01
2019-04-05T18:50:37.253Z,74.15
2019-04-05T18:53:37.527Z,74.06
2019-04-05T18:56:21.820Z,74.07
2019-04-05T18:59:16.739Z,74.37
2019-04-05T19:01:50.816Z,74.29
2019-04-05T19:04:42.716Z,74.76
2019-04-05T19:07:13.897Z,74.84
2019-04-05T19:13:16.733Z,74.26
2019-04-05T19:26:02.144Z,74.56
2019-04-05T19:49:11.774Z,76.35
2019-04-05T19:52:01.603Z,76.77
2019-04-05T19:54:49.935Z,76.81
2019-04-05T19:58:29.542Z,76.93
2019-04-05T20:04:47.302Z,76.35
2019-04-05T20:07:42.594Z,77.08
2019-04-05T20:10:14.108Z,77.10
2019-04-05T20:15:57.009Z,76.76
2019-04-05T20:18:38.176Z,76.38
2019-04-05T20:22:04.727Z,76.42
2019-04-05T20:28:28.686Z,77.10
2019-04-05T20:35:04.918Z,77.27
2019-04-05T20:37:56.183Z,77.16
2019-04-05T20:41:14.314Z,77.68
2019-04-05T20:46:54.060Z,77.77
2019-04-05T20:50:06.980Z,77.70
2019-04-05T20:53:17.615Z,77.12
2019-04-05T21:01:54.619Z,78.01
2019-04-05T21:04:45.082Z,78.13
2019-04-05T21:07:23.233Z,78.16
2019-04-05T21:10:03.914Z,78.44
2019-04-05T21:12:53.911Z,78.26
2019-04-05T21:15:53.693Z,78.26
2019-04-05T21:18:44.600Z,78.08
2019-04-05T21:21:41.740Z,78.30
2019-04-05T21:24:52.205Z,78.26
2019-04-05T21:27:42.342Z,78.26
2019-04-05T21:30:38.060Z,78.47
2019-04-05T21:36:51.156Z,78.95
2019-04-05T21:39:49.362Z,79.36
2019-04-05T21:42:30.641Z,79.80
2019-04-05T21:45:13.396Z,80.39
2019-04-05T21:47:59.961Z,80.26
2019-04-05T21:50:33.683Z,80.76
2019-04-05T21:53:24.264Z,81.40
2019-04-05T21:56:18.925Z,82.17
2019-04-05T21:59:08.778Z,82.36
2019-04-05T22:02:02.562Z,83.31
2019-04-05T22:04:54.601Z,83.76
2019-04-05T22:07:44.650Z,84.29
2019-04-05T22:10:34.699Z,84.73
2019-04-05T22:13:24.788Z,83.97
2019-04-05T22:16:14.567Z,84.27
2019-04-05T22:19:06.238Z,84.37
2019-04-05T22:21:48.390Z,84.32
2019-04-05T22:24:34.359Z,84.74
2019-04-05T22:27:27.705Z,84.90
2019-04-05T22:30:17.920Z,85.68
2019-04-05T22:36:27.138Z,86.55
2019-04-05T22:39:21.654Z,86.92
2019-04-05T22:41:52.711Z,87.09
2019-04-05T22:44:42.610Z,86.85
2019-04-05T22:47:32.784Z,87.11
2019-04-05T22:50:06.622Z,88.06
2019-04-05T22:52:56.615Z,88.44
2019-04-05T22:55:49.738Z,89.04
2019-04-05T23:04:37.410Z,89.36
2019-04-05T23:07:28.342Z,89.45
2019-04-05T23:19:42.182Z,90.99
2019-04-05T23:25:37.223Z,91.17
2019-04-05T23:31:21.095Z,91.19
2019-04-05T23:34:01.198Z,91.60
2019-04-05T23:39:42.598Z,91.83
2019-04-05T23:55:33.486Z,92.71
